Maple, Texas
Current Conditions -  °F | °C
As of 1:55 AM on Friday 31 Oct 2014 (Local Time) from KCVN Reporting Station
Clear Clear  
Wind Chill: 37°   Ceiling: Unl
Heat Index: 43°   Visibility: 10mi
Dew Point: 27°   Wind: 9mph
Humidity: 53%   Direction: 40°NE
Pressure: 30.4"   Gusts: NA
Location:  33.85°N, 102.9°W
Report Text: KCVN 310655Z AUTO 04008KT 10SM CLR 06/M03 A3040 RMK AO1
Loading
Personal Weather Stations






























Interactive Weather Map
Tropical Storm Tracking
New forecast layout! Learn more

10-Day Weather Forecast

Advertisements
Track Severe Weather on mobile